sensor_id;sensor_type;location;lat;lon;timestamp;temperature;humidity
37998;DHT22;24079;51.824;4.682;2023-04-24T00:01:24;10.20;99.90
37998;DHT22;24079;51.824;4.682;2023-04-24T00:03:49;10.20;99.90
37998;DHT22;24079;51.824;4.682;2023-04-24T00:06:16;10.20;99.90
37998;DHT22;24079;51.824;4.682;2023-04-24T00:08:42;10.20;99.90
37998;DHT22;24079;51.824;4.682;2023-04-24T00:11:08;10.10;99.90
37998;DHT22;24079;51.824;4.682;2023-04-24T00:13:35;10.10;99.90
37998;DHT22;24079;51.824;4.682;2023-04-24T00:16:00;10.20;99.90
37998;DHT22;24079;51.824;4.682;2023-04-24T00:18:26;10.20;99.90
37998;DHT22;24079;51.824;4.682;2023-04-24T00:20:52;10.20;99.90
37998;DHT22;24079;51.824;4.682;2023-04-24T00:23:17;10.20;99.90
37998;DHT22;24079;51.824;4.682;2023-04-24T00:25:43;10.20;99.90
37998;DHT22;24079;51.824;4.682;2023-04-24T00:28:09;10.30;99.90
37998;DHT22;24079;51.824;4.682;2023-04-24T00:30:34;10.30;99.90
37998;DHT22;24079;51.824;4.682;2023-04-24T00:33:00;10.30;99.90
37998;DHT22;24079;51.824;4.682;2023-04-24T00:35:25;10.40;99.90
37998;DHT22;24079;51.824;4.682;2023-04-24T00:37:51;10.30;99.90
37998;DHT22;24079;51.824;4.682;2023-04-24T00:40:17;10.40;99.90
37998;DHT22;24079;51.824;4.682;2023-04-24T00:42:43;10.40;99.90
37998;DHT22;24079;51.824;4.682;2023-04-24T00:45:09;10.40;99.90
37998;DHT22;24079;51.824;4.682;2023-04-24T00:47:35;10.30;99.90
37998;DHT22;24079;51.824;4.682;2023-04-24T00:50:05;10.30;99.90
37998;DHT22;24079;51.824;4.682;2023-04-24T00:52:31;10.40;99.90
37998;DHT22;24079;51.824;4.682;2023-04-24T00:54:58;10.40;99.90
37998;DHT22;24079;51.824;4.682;2023-04-24T00:57:24;10.30;99.90
37998;DHT22;24079;51.824;4.682;2023-04-24T00:59:51;10.30;99.90
37998;DHT22;24079;51.824;4.682;2023-04-24T01:02:17;10.30;99.90
37998;DHT22;24079;51.824;4.682;2023-04-24T01:04:43;10.40;99.90
37998;DHT22;24079;51.824;4.682;2023-04-24T01:07:09;10.40;99.90
37998;DHT22;24079;51.824;4.682;2023-04-24T01:09:45;10.40;99.90
37998;DHT22;24079;51.824;4.682;2023-04-24T01:12:13;10.30;99.90
37998;DHT22;24079;51.824;4.682;2023-04-24T01:14:39;10.30;99.90
37998;DHT22;24079;51.824;4.682;2023-04-24T01:17:05;10.30;99.90
37998;DHT22;24079;51.824;4.682;2023-04-24T01:19:31;10.30;99.90
37998;DHT22;24079;51.824;4.682;2023-04-24T01:21:59;10.30;99.90
37998;DHT22;24079;51.824;4.682;2023-04-24T01:24:27;10.30;99.90
37998;DHT22;24079;51.824;4.682;2023-04-24T01:26:53;10.30;99.90
37998;DHT22;24079;51.824;4.682;2023-04-24T01:29:19;10.30;99.90
37998;DHT22;24079;51.824;4.682;2023-04-24T01:31:45;10.30;99.90
37998;DHT22;24079;51.824;4.682;2023-04-24T01:34:11;10.20;99.90
37998;DHT22;24079;51.824;4.682;2023-04-24T01:36:37;10.30;99.90
37998;DHT22;24079;51.824;4.682;2023-04-24T01:39:04;10.30;99.90
37998;DHT22;24079;51.824;4.682;2023-04-24T01:41:30;10.40;99.90
37998;DHT22;24079;51.824;4.682;2023-04-24T01:43:57;10.40;99.90
37998;DHT22;24079;51.824;4.682;2023-04-24T01:46:24;10.40;99.90
37998;DHT22;24079;51.824;4.682;2023-04-24T01:48:51;10.40;99.90
37998;DHT22;24079;51.824;4.682;2023-04-24T01:51:17;10.40;99.90
37998;DHT22;24079;51.824;4.682;2023-04-24T01:53:43;10.40;99.90
37998;DHT22;24079;51.824;4.682;2023-04-24T01:56:09;10.40;99.90
37998;DHT22;24079;51.824;4.682;2023-04-24T01:58:35;10.30;99.90
37998;DHT22;24079;51.824;4.682;2023-04-24T02:01:01;10.30;99.90
37998;DHT22;24079;51.824;4.682;2023-04-24T02:03:27;10.40;99.90
37998;DHT22;24079;51.824;4.682;2023-04-24T02:05:52;10.40;99.90
37998;DHT22;24079;51.824;4.682;2023-04-24T02:08:18;10.40;99.90
37998;DHT22;24079;51.824;4.682;2023-04-24T02:10:44;10.40;99.90
37998;DHT22;24079;51.824;4.682;2023-04-24T02:13:09;10.40;99.90
37998;DHT22;24079;51.824;4.682;2023-04-24T02:15:35;10.40;99.90
37998;DHT22;24079;51.824;4.682;2023-04-24T02:18:01;10.40;99.90
37998;DHT22;24079;51.824;4.682;2023-04-24T02:20:27;10.40;99.90
37998;DHT22;24079;51.824;4.682;2023-04-24T02:22:52;10.30;99.90
37998;DHT22;24079;51.824;4.682;2023-04-24T02:25:18;10.30;99.90
37998;DHT22;24079;51.824;4.682;2023-04-24T02:27:44;10.30;99.90
37998;DHT22;24079;51.824;4.682;2023-04-24T02:30:09;10.30;99.90
37998;DHT22;24079;51.824;4.682;2023-04-24T02:32:35;10.30;99.90
37998;DHT22;24079;51.824;4.682;2023-04-24T02:35:01;10.30;99.90
37998;DHT22;24079;51.824;4.682;2023-04-24T02:37:27;10.40;99.90
37998;DHT22;24079;51.824;4.682;2023-04-24T02:39:53;10.30;99.90
37998;DHT22;24079;51.824;4.682;2023-04-24T02:42:19;10.30;99.90
37998;DHT22;24079;51.824;4.682;2023-04-24T02:44:45;10.30;99.90
37998;DHT22;24079;51.824;4.682;2023-04-24T02:47:11;10.30;99.90
37998;DHT22;24079;51.824;4.682;2023-04-24T02:49:37;10.20;99.90
37998;DHT22;24079;51.824;4.682;2023-04-24T02:52:03;10.20;99.90
37998;DHT22;24079;51.824;4.682;2023-04-24T02:54:29;10.20;99.90
37998;DHT22;24079;51.824;4.682;2023-04-24T02:56:55;10.20;99.90
37998;DHT22;24079;51.824;4.682;2023-04-24T02:59:22;10.10;99.90
37998;DHT22;24079;51.824;4.682;2023-04-24T03:01:48;10.10;99.90
37998;DHT22;24079;51.824;4.682;2023-04-24T03:04:15;10.10;99.90
37998;DHT22;24079;51.824;4.682;2023-04-24T03:06:40;10.10;99.90
37998;DHT22;24079;51.824;4.682;2023-04-24T03:09:06;10.10;99.90
37998;DHT22;24079;51.824;4.682;2023-04-24T03:11:32;10.00;99.90
37998;DHT22;24079;51.824;4.682;2023-04-24T03:13:57;10.00;99.90
37998;DHT22;24079;51.824;4.682;2023-04-24T03:16:23;10.00;99.90
37998;DHT22;24079;51.824;4.682;2023-04-24T03:18:48;10.10;99.90
37998;DHT22;24079;51.824;4.682;2023-04-24T03:21:14;10.10;99.90
37998;DHT22;24079;51.824;4.682;2023-04-24T03:23:40;10.10;99.90
37998;DHT22;24079;51.824;4.682;2023-04-24T03:26:05;10.10;99.90
37998;DHT22;24079;51.824;4.682;2023-04-24T03:28:31;10.00;99.90
37998;DHT22;24079;51.824;4.682;2023-04-24T03:30:56;10.10;99.90
37998;DHT22;24079;51.824;4.682;2023-04-24T03:33:22;10.10;99.90
37998;DHT22;24079;51.824;4.682;2023-04-24T03:35:47;10.00;99.90
37998;DHT22;24079;51.824;4.682;2023-04-24T03:38:13;10.00;99.90
37998;DHT22;24079;51.824;4.682;2023-04-24T03:40:39;10.00;99.90
37998;DHT22;24079;51.824;4.682;2023-04-24T03:43:04;10.00;99.90
37998;DHT22;24079;51.824;4.682;2023-04-24T03:45:30;10.00;99.90
37998;DHT22;24079;51.824;4.682;2023-04-24T03:47:55;10.00;99.90
37998;DHT22;24079;51.824;4.682;2023-04-24T03:50:21;10.00;99.90
37998;DHT22;24079;51.824;4.682;2023-04-24T03:52:47;10.00;99.90
37998;DHT22;24079;51.824;4.682;2023-04-24T03:55:13;10.00;99.90
37998;DHT22;24079;51.824;4.682;2023-04-24T03:57:40;10.10;99.90
37998;DHT22;24079;51.824;4.682;2023-04-24T04:00:06;9.90;99.90
37998;DHT22;24079;51.824;4.682;2023-04-24T04:05:54;10.00;99.90
37998;DHT22;24079;51.824;4.682;2023-04-24T04:08:19;9.90;99.90
37998;DHT22;24079;51.824;4.682;2023-04-24T04:10:45;10.00;99.90
37998;DHT22;24079;51.824;4.682;2023-04-24T04:13:10;10.00;99.90
37998;DHT22;24079;51.824;4.682;2023-04-24T04:15:36;10.00;99.90
37998;DHT22;24079;51.824;4.682;2023-04-24T04:18:02;9.90;99.90
37998;DHT22;24079;51.824;4.682;2023-04-24T04:20:27;10.00;99.90
37998;DHT22;24079;51.824;4.682;2023-04-24T04:22:53;10.00;99.90
37998;DHT22;24079;51.824;4.682;2023-04-24T04:25:19;10.00;99.90
37998;DHT22;24079;51.824;4.682;2023-04-24T04:27:46;9.90;99.90
37998;DHT22;24079;51.824;4.682;2023-04-24T04:30:13;9.90;99.90
37998;DHT22;24079;51.824;4.682;2023-04-24T04:32:39;9.90;99.90
37998;DHT22;24079;51.824;4.682;2023-04-24T04:35:05;9.90;99.90
37998;DHT22;24079;51.824;4.682;2023-04-24T04:37:34;9.90;99.90
37998;DHT22;24079;51.824;4.682;2023-04-24T04:40:01;9.90;99.90
37998;DHT22;24079;51.824;4.682;2023-04-24T04:42:31;9.90;99.90
37998;DHT22;24079;51.824;4.682;2023-04-24T04:44:57;9.90;99.90
37998;DHT22;24079;51.824;4.682;2023-04-24T04:47:23;9.90;99.90
37998;DHT22;24079;51.824;4.682;2023-04-24T04:49:49;9.90;99.90
37998;DHT22;24079;51.824;4.682;2023-04-24T04:52:17;9.80;99.90
37998;DHT22;24079;51.824;4.682;2023-04-24T04:54:43;9.90;99.90
37998;DHT22;24079;51.824;4.682;2023-04-24T04:57:08;9.90;99.90
37998;DHT22;24079;51.824;4.682;2023-04-24T04:59:34;9.90;99.90
37998;DHT22;24079;51.824;4.682;2023-04-24T05:02:00;9.90;99.90
37998;DHT22;24079;51.824;4.682;2023-04-24T05:04:25;9.90;99.90
37998;DHT22;24079;51.824;4.682;2023-04-24T05:06:52;9.90;99.90
37998;DHT22;24079;51.824;4.682;2023-04-24T05:09:18;9.90;99.90
37998;DHT22;24079;51.824;4.682;2023-04-24T05:11:43;10.00;99.90
37998;DHT22;24079;51.824;4.682;2023-04-24T05:14:09;9.90;99.90
37998;DHT22;24079;51.824;4.682;2023-04-24T05:16:35;9.80;99.90
37998;DHT22;24079;51.824;4.682;2023-04-24T05:19:02;9.80;99.90
37998;DHT22;24079;51.824;4.682;2023-04-24T05:21:27;9.80;99.90
37998;DHT22;24079;51.824;4.682;2023-04-24T05:23:53;9.80;99.90
37998;DHT22;24079;51.824;4.682;2023-04-24T05:26:19;9.70;99.90
37998;DHT22;24079;51.824;4.682;2023-04-24T05:29:57;9.60;99.90
37998;DHT22;24079;51.824;4.682;2023-04-24T05:32:23;9.50;99.90
37998;DHT22;24079;51.824;4.682;2023-04-24T05:34:48;9.50;99.90
37998;DHT22;24079;51.824;4.682;2023-04-24T05:37:14;9.50;99.90
37998;DHT22;24079;51.824;4.682;2023-04-24T05:39:40;9.50;99.90
37998;DHT22;24079;51.824;4.682;2023-04-24T05:42:06;9.50;99.90
37998;DHT22;24079;51.824;4.682;2023-04-24T05:44:32;9.50;99.90
37998;DHT22;24079;51.824;4.682;2023-04-24T05:46:58;9.50;99.90
37998;DHT22;24079;51.824;4.682;2023-04-24T05:49:26;9.50;99.90
37998;DHT22;24079;51.824;4.682;2023-04-24T05:51:52;9.50;99.90
37998;DHT22;24079;51.824;4.682;2023-04-24T05:54:18;9.50;99.90
37998;DHT22;24079;51.824;4.682;2023-04-24T05:56:43;9.40;99.90
37998;DHT22;24079;51.824;4.682;2023-04-24T05:59:09;9.40;99.90
37998;DHT22;24079;51.824;4.682;2023-04-24T06:01:35;9.40;99.90
37998;DHT22;24079;51.824;4.682;2023-04-24T06:04:02;9.30;99.90
37998;DHT22;24079;51.824;4.682;2023-04-24T06:06:28;9.30;99.90
37998;DHT22;24079;51.824;4.682;2023-04-24T06:08:54;9.30;99.90
37998;DHT22;24079;51.824;4.682;2023-04-24T06:11:20;9.30;99.90
37998;DHT22;24079;51.824;4.682;2023-04-24T06:13:45;9.30;99.90
37998;DHT22;24079;51.824;4.682;2023-04-24T06:16:11;9.30;99.90
37998;DHT22;24079;51.824;4.682;2023-04-24T06:18:37;9.40;99.90
37998;DHT22;24079;51.824;4.682;2023-04-24T06:21:03;9.40;99.90
37998;DHT22;24079;51.824;4.682;2023-04-24T06:23:29;9.40;99.90
37998;DHT22;24079;51.824;4.682;2023-04-24T06:25:57;9.40;99.90
37998;DHT22;24079;51.824;4.682;2023-04-24T06:28:23;9.40;99.90
37998;DHT22;24079;51.824;4.682;2023-04-24T06:30:49;9.30;99.90
37998;DHT22;24079;51.824;4.682;2023-04-24T06:33:16;9.30;99.90
37998;DHT22;24079;51.824;4.682;2023-04-24T06:35:42;9.30;99.90
37998;DHT22;24079;51.824;4.682;2023-04-24T06:38:08;9.30;99.90
37998;DHT22;24079;51.824;4.682;2023-04-24T06:40:33;9.30;99.90
37998;DHT22;24079;51.824;4.682;2023-04-24T06:42:59;9.30;99.90
37998;DHT22;24079;51.824;4.682;2023-04-24T06:45:25;9.30;99.90
37998;DHT22;24079;51.824;4.682;2023-04-24T06:47:51;9.30;99.90
37998;DHT22;24079;51.824;4.682;2023-04-24T06:50:17;9.20;99.90
37998;DHT22;24079;51.824;4.682;2023-04-24T06:52:43;9.20;99.90
37998;DHT22;24079;51.824;4.682;2023-04-24T06:55:09;9.30;99.90
37998;DHT22;24079;51.824;4.682;2023-04-24T06:57:36;9.30;99.90
37998;DHT22;24079;51.824;4.682;2023-04-24T07:00:03;9.40;99.90
37998;DHT22;24079;51.824;4.682;2023-04-24T07:02:30;9.50;99.90
37998;DHT22;24079;51.824;4.682;2023-04-24T07:04:56;9.40;99.90
37998;DHT22;24079;51.824;4.682;2023-04-24T07:07:22;9.40;99.90
37998;DHT22;24079;51.824;4.682;2023-04-24T07:09:49;9.30;99.90
37998;DHT22;24079;51.824;4.682;2023-04-24T07:12:16;9.40;99.90
37998;DHT22;24079;51.824;4.682;2023-04-24T07:14:42;9.50;99.90
37998;DHT22;24079;51.824;4.682;2023-04-24T07:17:09;9.50;99.90
37998;DHT22;24079;51.824;4.682;2023-04-24T07:19:35;9.50;99.90
37998;DHT22;24079;51.824;4.682;2023-04-24T07:22:01;9.60;99.90
37998;DHT22;24079;51.824;4.682;2023-04-24T07:24:29;9.50;99.90
37998;DHT22;24079;51.824;4.682;2023-04-24T07:26:55;9.50;99.90
37998;DHT22;24079;51.824;4.682;2023-04-24T07:29:22;9.60;99.90
37998;DHT22;24079;51.824;4.682;2023-04-24T07:31:48;9.60;99.90
37998;DHT22;24079;51.824;4.682;2023-04-24T07:34:13;9.60;99.90
37998;DHT22;24079;51.824;4.682;2023-04-24T07:36:40;9.60;99.90
37998;DHT22;24079;51.824;4.682;2023-04-24T07:39:06;9.50;99.90
37998;DHT22;24079;51.824;4.682;2023-04-24T07:41:32;9.50;99.90
37998;DHT22;24079;51.824;4.682;2023-04-24T07:43:58;9.50;99.90
37998;DHT22;24079;51.824;4.682;2023-04-24T07:46:24;9.50;99.90
37998;DHT22;24079;51.824;4.682;2023-04-24T07:48:50;9.60;99.90
37998;DHT22;24079;51.824;4.682;2023-04-24T07:51:16;9.60;99.90
37998;DHT22;24079;51.824;4.682;2023-04-24T07:53:42;9.70;99.90
37998;DHT22;24079;51.824;4.682;2023-04-24T07:56:08;9.70;99.90
37998;DHT22;24079;51.824;4.682;2023-04-24T07:58:34;9.80;99.90
37998;DHT22;24079;51.824;4.682;2023-04-24T08:01:00;9.80;99.90
37998;DHT22;24079;51.824;4.682;2023-04-24T08:03:26;9.70;99.90
37998;DHT22;24079;51.824;4.682;2023-04-24T08:05:51;9.60;99.90
37998;DHT22;24079;51.824;4.682;2023-04-24T08:08:17;9.70;99.90
37998;DHT22;24079;51.824;4.682;2023-04-24T08:10:43;9.50;99.90
37998;DHT22;24079;51.824;4.682;2023-04-24T08:13:08;9.40;99.90
37998;DHT22;24079;51.824;4.682;2023-04-24T08:15:34;9.30;99.90
37998;DHT22;24079;51.824;4.682;2023-04-24T08:18:00;9.40;99.90
37998;DHT22;24079;51.824;4.682;2023-04-24T08:20:26;9.40;99.90
37998;DHT22;24079;51.824;4.682;2023-04-24T08:22:51;9.40;99.90
37998;DHT22;24079;51.824;4.682;2023-04-24T08:25:17;9.60;99.90
37998;DHT22;24079;51.824;4.682;2023-04-24T08:27:44;9.70;99.90
37998;DHT22;24079;51.824;4.682;2023-04-24T08:30:10;9.80;99.90
37998;DHT22;24079;51.824;4.682;2023-04-24T08:32:36;9.80;99.90
37998;DHT22;24079;51.824;4.682;2023-04-24T08:35:02;9.80;99.90
37998;DHT22;24079;51.824;4.682;2023-04-24T08:37:28;9.70;99.90
37998;DHT22;24079;51.824;4.682;2023-04-24T08:39:54;9.70;99.90
37998;DHT22;24079;51.824;4.682;2023-04-24T08:42:20;9.80;99.90
37998;DHT22;24079;51.824;4.682;2023-04-24T08:44:48;9.90;99.90
37998;DHT22;24079;51.824;4.682;2023-04-24T08:47:15;9.90;99.90
37998;DHT22;24079;51.824;4.682;2023-04-24T08:49:40;9.90;99.90
37998;DHT22;24079;51.824;4.682;2023-04-24T08:52:06;9.70;99.90
37998;DHT22;24079;51.824;4.682;2023-04-24T08:54:34;9.70;99.90
37998;DHT22;24079;51.824;4.682;2023-04-24T08:57:01;9.80;99.90
37998;DHT22;24079;51.824;4.682;2023-04-24T08:59:31;9.80;99.90
37998;DHT22;24079;51.824;4.682;2023-04-24T09:01:58;9.70;99.90
37998;DHT22;24079;51.824;4.682;2023-04-24T09:04:24;9.80;99.90
37998;DHT22;24079;51.824;4.682;2023-04-24T09:06:57;9.70;99.90
37998;DHT22;24079;51.824;4.682;2023-04-24T09:09:24;9.70;99.90
37998;DHT22;24079;51.824;4.682;2023-04-24T09:11:51;9.80;99.90
37998;DHT22;24079;51.824;4.682;2023-04-24T09:14:19;9.80;99.90
37998;DHT22;24079;51.824;4.682;2023-04-24T09:16:46;9.80;99.90
37998;DHT22;24079;51.824;4.682;2023-04-24T09:19:11;9.90;99.90
37998;DHT22;24079;51.824;4.682;2023-04-24T09:21:37;10.00;99.90
37998;DHT22;24079;51.824;4.682;2023-04-24T09:24:06;10.20;99.90
37998;DHT22;24079;51.824;4.682;2023-04-24T09:26:35;10.30;99.90
37998;DHT22;24079;51.824;4.682;2023-04-24T09:29:03;10.30;99.90
37998;DHT22;24079;51.824;4.682;2023-04-24T09:31:29;10.10;99.90
37998;DHT22;24079;51.824;4.682;2023-04-24T09:34:00;10.00;99.90
37998;DHT22;24079;51.824;4.682;2023-04-24T09:36:31;9.70;99.90
37998;DHT22;24079;51.824;4.682;2023-04-24T09:39:00;9.70;99.90
37998;DHT22;24079;51.824;4.682;2023-04-24T09:41:27;9.60;99.90
37998;DHT22;24079;51.824;4.682;2023-04-24T09:43:54;9.80;99.90
37998;DHT22;24079;51.824;4.682;2023-04-24T09:46:21;10.00;99.90
37998;DHT22;24079;51.824;4.682;2023-04-24T09:48:48;10.20;99.90
37998;DHT22;24079;51.824;4.682;2023-04-24T09:51:14;10.50;99.90
37998;DHT22;24079;51.824;4.682;2023-04-24T09:53:46;10.70;99.90
37998;DHT22;24079;51.824;4.682;2023-04-24T09:56:12;10.80;99.90
37998;DHT22;24079;51.824;4.682;2023-04-24T09:58:38;10.70;99.90
37998;DHT22;24079;51.824;4.682;2023-04-24T10:01:05;10.70;99.90
37998;DHT22;24079;51.824;4.682;2023-04-24T10:03:32;10.70;99.90
37998;DHT22;24079;51.824;4.682;2023-04-24T10:06:02;10.60;99.90
37998;DHT22;24079;51.824;4.682;2023-04-24T10:08:35;10.60;99.90
37998;DHT22;24079;51.824;4.682;2023-04-24T10:11:02;10.90;99.90
37998;DHT22;24079;51.824;4.682;2023-04-24T10:13:28;11.10;99.90
37998;DHT22;24079;51.824;4.682;2023-04-24T10:15:56;11.40;99.90
37998;DHT22;24079;51.824;4.682;2023-04-24T10:18:26;11.50;99.90
37998;DHT22;24079;51.824;4.682;2023-04-24T10:20:53;11.70;99.90
37998;DHT22;24079;51.824;4.682;2023-04-24T10:23:20;11.90;99.90
37998;DHT22;24079;51.824;4.682;2023-04-24T10:25:47;12.30;99.90
37998;DHT22;24079;51.824;4.682;2023-04-24T10:28:15;12.40;99.90
37998;DHT22;24079;51.824;4.682;2023-04-24T10:30:43;12.30;99.90
37998;DHT22;24079;51.824;4.682;2023-04-24T10:33:09;12.10;99.90
37998;DHT22;24079;51.824;4.682;2023-04-24T10:35:38;11.80;99.90
37998;DHT22;24079;51.824;4.682;2023-04-24T10:38:23;11.30;99.90
37998;DHT22;24079;51.824;4.682;2023-04-24T10:40:50;10.80;99.90
37998;DHT22;24079;51.824;4.682;2023-04-24T10:43:17;10.70;99.90
37998;DHT22;24079;51.824;4.682;2023-04-24T10:46:03;10.60;99.90
37998;DHT22;24079;51.824;4.682;2023-04-24T10:48:29;10.60;99.90
37998;DHT22;24079;51.824;4.682;2023-04-24T10:50:55;10.30;99.90
37998;DHT22;24079;51.824;4.682;2023-04-24T10:53:22;10.40;99.90
37998;DHT22;24079;51.824;4.682;2023-04-24T10:55:59;10.40;99.90
37998;DHT22;24079;51.824;4.682;2023-04-24T10:58:38;10.50;99.90
37998;DHT22;24079;51.824;4.682;2023-04-24T11:01:05;10.80;99.90
37998;DHT22;24079;51.824;4.682;2023-04-24T11:03:33;11.20;99.90
37998;DHT22;24079;51.824;4.682;2023-04-24T11:06:03;11.50;99.90
37998;DHT22;24079;51.824;4.682;2023-04-24T11:08:32;11.70;99.90
37998;DHT22;24079;51.824;4.682;2023-04-24T11:19:22;11.90;99.90
37998;DHT22;24079;51.824;4.682;2023-04-24T11:22:04;11.90;99.90
37998;DHT22;24079;51.824;4.682;2023-04-24T11:24:31;11.90;99.90
37998;DHT22;24079;51.824;4.682;2023-04-24T11:29:46;11.30;99.90
37998;DHT22;24079;51.824;4.682;2023-04-24T11:32:28;10.90;99.90
37998;DHT22;24079;51.824;4.682;2023-04-24T11:34:59;10.80;99.90
37998;DHT22;24079;51.824;4.682;2023-04-24T11:37:37;10.50;99.90
37998;DHT22;24079;51.824;4.682;2023-04-24T11:40:04;10.50;99.90
37998;DHT22;24079;51.824;4.682;2023-04-24T11:42:41;10.50;99.90
37998;DHT22;24079;51.824;4.682;2023-04-24T11:47:36;10.40;99.90
37998;DHT22;24079;51.824;4.682;2023-04-24T11:50:04;10.40;99.90
37998;DHT22;24079;51.824;4.682;2023-04-24T11:52:31;10.50;99.90
37998;DHT22;24079;51.824;4.682;2023-04-24T11:54:56;10.80;99.90
37998;DHT22;24079;51.824;4.682;2023-04-24T11:57:24;10.90;99.90
37998;DHT22;24079;51.824;4.682;2023-04-24T11:59:51;10.80;99.90
37998;DHT22;24079;51.824;4.682;2023-04-24T12:02:25;11.00;99.90
37998;DHT22;24079;51.824;4.682;2023-04-24T12:04:52;11.10;99.90
37998;DHT22;24079;51.824;4.682;2023-04-24T12:07:18;11.70;99.90
37998;DHT22;24079;51.824;4.682;2023-04-24T12:09:57;11.70;99.90
37998;DHT22;24079;51.824;4.682;2023-04-24T12:12:28;11.60;99.90
37998;DHT22;24079;51.824;4.682;2023-04-24T12:14:55;11.70;99.90
37998;DHT22;24079;51.824;4.682;2023-04-24T12:17:29;11.90;99.90
37998;DHT22;24079;51.824;4.682;2023-04-24T12:20:03;12.00;99.90
37998;DHT22;24079;51.824;4.682;2023-04-24T12:25:23;12.30;99.90
37998;DHT22;24079;51.824;4.682;2023-04-24T12:28:09;12.50;99.90
37998;DHT22;24079;51.824;4.682;2023-04-24T12:30:47;12.40;99.90
37998;DHT22;24079;51.824;4.682;2023-04-24T12:33:17;11.90;99.90
37998;DHT22;24079;51.824;4.682;2023-04-24T12:35:43;11.70;99.90
37998;DHT22;24079;51.824;4.682;2023-04-24T12:38:10;11.60;99.90
37998;DHT22;24079;51.824;4.682;2023-04-24T12:40:38;11.70;99.90
37998;DHT22;24079;51.824;4.682;2023-04-24T12:43:17;11.80;99.90
37998;DHT22;24079;51.824;4.682;2023-04-24T12:45:43;11.60;99.90
37998;DHT22;24079;51.824;4.682;2023-04-24T12:48:11;11.40;99.90
37998;DHT22;24079;51.824;4.682;2023-04-24T12:50:38;11.40;99.90
37998;DHT22;24079;51.824;4.682;2023-04-24T12:53:03;11.40;99.90
37998;DHT22;24079;51.824;4.682;2023-04-24T12:55:29;11.70;99.90
37998;DHT22;24079;51.824;4.682;2023-04-24T12:57:54;11.90;99.90
37998;DHT22;24079;51.824;4.682;2023-04-24T13:00:21;11.90;99.90
37998;DHT22;24079;51.824;4.682;2023-04-24T13:02:47;12.20;99.90
37998;DHT22;24079;51.824;4.682;2023-04-24T13:05:13;12.30;99.90
37998;DHT22;24079;51.824;4.682;2023-04-24T13:07:39;12.40;99.90
37998;DHT22;24079;51.824;4.682;2023-04-24T13:10:06;12.10;99.90
37998;DHT22;24079;51.824;4.682;2023-04-24T13:12:32;11.80;99.90
37998;DHT22;24079;51.824;4.682;2023-04-24T13:14:58;11.50;99.90
37998;DHT22;24079;51.824;4.682;2023-04-24T13:17:24;11.30;99.90
37998;DHT22;24079;51.824;4.682;2023-04-24T13:19:51;11.00;99.90
37998;DHT22;24079;51.824;4.682;2023-04-24T13:22:17;11.00;99.90
37998;DHT22;24079;51.824;4.682;2023-04-24T13:24:44;11.00;99.90
37998;DHT22;24079;51.824;4.682;2023-04-24T13:27:10;11.10;99.90
37998;DHT22;24079;51.824;4.682;2023-04-24T13:29:36;11.20;99.90
37998;DHT22;24079;51.824;4.682;2023-04-24T13:32:02;11.70;99.90
37998;DHT22;24079;51.824;4.682;2023-04-24T13:34:28;12.20;99.90
37998;DHT22;24079;51.824;4.682;2023-04-24T13:36:55;12.20;99.90
37998;DHT22;24079;51.824;4.682;2023-04-24T13:39:22;11.90;99.90
37998;DHT22;24079;51.824;4.682;2023-04-24T13:41:48;11.60;99.90
37998;DHT22;24079;51.824;4.682;2023-04-24T13:44:15;11.20;99.90
37998;DHT22;24079;51.824;4.682;2023-04-24T13:46:41;11.00;99.90
37998;DHT22;24079;51.824;4.682;2023-04-24T13:49:09;10.80;99.90
37998;DHT22;24079;51.824;4.682;2023-04-24T13:51:35;10.10;99.90
37998;DHT22;24079;51.824;4.682;2023-04-24T13:54:01;10.00;99.90
37998;DHT22;24079;51.824;4.682;2023-04-24T13:56:27;9.80;99.90
37998;DHT22;24079;51.824;4.682;2023-04-24T13:58:53;9.80;99.90
37998;DHT22;24079;51.824;4.682;2023-04-24T14:01:22;10.00;99.90
37998;DHT22;24079;51.824;4.682;2023-04-24T14:03:52;10.20;99.90
37998;DHT22;24079;51.824;4.682;2023-04-24T14:06:19;10.30;99.90
37998;DHT22;24079;51.824;4.682;2023-04-24T14:08:45;10.40;99.90
37998;DHT22;24079;51.824;4.682;2023-04-24T14:11:11;10.70;99.90
37998;DHT22;24079;51.824;4.682;2023-04-24T14:13:37;10.70;99.90
37998;DHT22;24079;51.824;4.682;2023-04-24T14:16:04;10.80;99.90
37998;DHT22;24079;51.824;4.682;2023-04-24T14:18:30;11.00;99.90
37998;DHT22;24079;51.824;4.682;2023-04-24T14:20:55;11.20;99.90
37998;DHT22;24079;51.824;4.682;2023-04-24T14:23:21;11.30;99.90
37998;DHT22;24079;51.824;4.682;2023-04-24T14:25:46;11.10;99.90
37998;DHT22;24079;51.824;4.682;2023-04-24T14:28:16;10.90;99.90
37998;DHT22;24079;51.824;4.682;2023-04-24T14:30:42;10.60;99.90
37998;DHT22;24079;51.824;4.682;2023-04-24T14:33:08;10.50;99.90
37998;DHT22;24079;51.824;4.682;2023-04-24T14:35:33;10.50;99.90
37998;DHT22;24079;51.824;4.682;2023-04-24T14:38:00;10.50;99.90
37998;DHT22;24079;51.824;4.682;2023-04-24T14:40:26;10.70;99.90
37998;DHT22;24079;51.824;4.682;2023-04-24T14:42:52;10.90;99.90
37998;DHT22;24079;51.824;4.682;2023-04-24T14:45:18;10.80;99.90
37998;DHT22;24079;51.824;4.682;2023-04-24T14:47:44;11.00;99.90
37998;DHT22;24079;51.824;4.682;2023-04-24T14:50:10;11.20;99.90
37998;DHT22;24079;51.824;4.682;2023-04-24T14:52:36;11.30;99.90
37998;DHT22;24079;51.824;4.682;2023-04-24T14:55:03;11.40;99.90
37998;DHT22;24079;51.824;4.682;2023-04-24T14:57:28;11.50;99.90
37998;DHT22;24079;51.824;4.682;2023-04-24T14:59:54;11.50;99.90
37998;DHT22;24079;51.824;4.682;2023-04-24T15:02:20;11.40;99.90
37998;DHT22;24079;51.824;4.682;2023-04-24T15:04:45;11.30;99.90
37998;DHT22;24079;51.824;4.682;2023-04-24T15:07:11;11.20;99.90
37998;DHT22;24079;51.824;4.682;2023-04-24T15:09:36;11.10;99.90
37998;DHT22;24079;51.824;4.682;2023-04-24T15:12:02;10.90;99.90
37998;DHT22;24079;51.824;4.682;2023-04-24T15:14:28;10.90;99.90
37998;DHT22;24079;51.824;4.682;2023-04-24T15:16:54;10.90;99.90
37998;DHT22;24079;51.824;4.682;2023-04-24T15:19:20;11.10;99.90
37998;DHT22;24079;51.824;4.682;2023-04-24T15:21:45;11.20;99.90
37998;DHT22;24079;51.824;4.682;2023-04-24T15:24:11;11.20;99.90
37998;DHT22;24079;51.824;4.682;2023-04-24T15:26:37;11.20;99.90
37998;DHT22;24079;51.824;4.682;2023-04-24T15:29:02;11.30;99.90
37998;DHT22;24079;51.824;4.682;2023-04-24T15:31:28;11.40;99.90
37998;DHT22;24079;51.824;4.682;2023-04-24T15:33:53;11.20;99.90
37998;DHT22;24079;51.824;4.682;2023-04-24T15:36:19;11.20;99.90
37998;DHT22;24079;51.824;4.682;2023-04-24T15:38:46;11.20;99.90
37998;DHT22;24079;51.824;4.682;2023-04-24T15:41:12;11.10;99.90
37998;DHT22;24079;51.824;4.682;2023-04-24T15:43:38;11.10;99.90
37998;DHT22;24079;51.824;4.682;2023-04-24T15:46:04;11.00;99.90
37998;DHT22;24079;51.824;4.682;2023-04-24T15:48:31;10.80;99.90
37998;DHT22;24079;51.824;4.682;2023-04-24T15:50:56;10.80;99.90
37998;DHT22;24079;51.824;4.682;2023-04-24T15:53:24;11.00;99.90